Погода Кордейрополисна неделю

Сан-Паулу, Бразилия

17 - 23 июня
  • 17июня
    Сегодня
    +12°
    +28°
    Практически безоблачно
    ВремяПогодаТемператураВлажностьДавлениеВетер, м/сВероятность осадков
    00:00Ясно и безоблачно+19°C58 %710 мм3.8 м/с5 %
    03:00Ясно и безоблачно+17°C63 %710 мм4.0 м/с5 %
    06:00Ясно и безоблачно+14°C66 %709 мм4.2 м/с5 %
    09:00Ясно и безоблачно+19°C56 %711 мм3.8 м/с5 %
    12:00Практически безоблачно+26°C33 %711 мм4.2 м/с5 %
    15:00Практически безоблачно+28°C28 %709 мм3.1 м/с5 %
    18:00Ясно и безоблачно+23°C42 %708 мм2.7 м/с5 %
    21:00Ясно и безоблачно+19°C48 %709 мм2.9 м/с5 %
  • 18июня
    Вторник
    +13°
    +28°
    Ясно и безоблачно
    ВремяПогодаТемператураВлажностьДавлениеВетер, м/сВероятность осадков
    00:00Ясно и безоблачно+18°C63 %709 мм3.6 м/с5 %
    03:00Ясно и безоблачно+16°C68 %709 мм3.3 м/с5 %
    06:00Ясно и безоблачно+13°C65 %708 мм3.4 м/с5 %
    09:00Ясно и безоблачно+19°C51 %711 мм3.1 м/с5 %
    12:00Ясно и безоблачно+26°C28 %710 мм4.8 м/с5 %
    15:00Ясно и безоблачно+28°C25 %709 мм3.1 м/с5 %
    18:00Ясно и безоблачно+23°C38 %709 мм2.9 м/с5 %
    21:00Ясно и безоблачно+19°C47 %709 мм3.0 м/с5 %
  • 19июня
    Среда
    +13°
    +29°
    Ясно и безоблачно
    ВремяПогодаТемператураВлажностьДавлениеВетер, м/сВероятность осадков
    00:00Ясно и безоблачно+18°C57 %709 мм2.9 м/с5 %
    03:00Ясно и безоблачно+16°C70 %709 мм2.9 м/с5 %
    06:00Ясно и безоблачно+13°C67 %708 мм3.4 м/с5 %
    09:00Ясно и безоблачно+19°C53 %711 мм3.0 м/с5 %
    12:00Ясно и безоблачно+27°C31 %711 мм3.4 м/с5 %
    15:00Ясно и безоблачно+28°C26 %710 мм2.0 м/с5 %
    18:00Ясно и безоблачно+24°C41 %709 мм2.0 м/с5 %
    21:00Ясно и безоблачно+18°C48 %710 мм2.2 м/с5 %
  • 20июня
    Четверг
    +12°
    +28°
    Практически безоблачно
    ВремяПогодаТемператураВлажностьДавлениеВетер, м/сВероятность осадков
    00:00Ясно и безоблачно+18°C58 %710 мм1.8 м/с5 %
    03:00Ясно и безоблачно+17°C67 %710 мм2.1 м/с5 %
    06:00Ясно и безоблачно+14°C76 %710 мм2.2 м/с5 %
    09:00Ясно и безоблачно+20°C57 %712 мм1.7 м/с5 %
    12:00Практически безоблачно+27°C29 %712 мм1.5 м/с5 %
    15:00Практически безоблачно+28°C25 %710 мм1.8 м/с5 %
    18:00Практически безоблачно+23°C39 %710 мм2.0 м/с5 %
    21:00Ясно и безоблачно+18°C43 %710 мм3.1 м/с5 %
  • 21июня
    Пятница
    +13°
    +29°
    Ясно и безоблачно
    ВремяПогодаТемператураВлажностьДавлениеВетер, м/сВероятность осадков
    00:00Ясно и безоблачно+17°C52 %711 мм2.5 м/с5 %
    03:00Ясно и безоблачно+16°C65 %710 мм2.0 м/с5 %
    06:00Ясно и безоблачно+13°C71 %709 мм2.0 м/с5 %
    09:00Ясно и безоблачно+19°C54 %711 мм2.2 м/с5 %
    12:00Небольшая облачность+26°C33 %712 мм4.1 м/с5 %
    15:00Ясно и безоблачно+28°C28 %710 мм3.2 м/с5 %
    18:00Небольшая облачность+23°C41 %709 мм2.5 м/с5 %
    21:00Облачно с прояснениями+19°C48 %710 мм3.6 м/с5 %
Мы используем cookies
Соглашаюсь